Bookmark and Share
Track history (hours):
 

Callsign BA5 (name unknown)

Last reported at 2013-Jun-12 14:30 UTC. Time now 2014-Apr-17 01:06 UTC.
Position N 36°38' W 008°59'.
Warning: this ship's position is months out of date.

NotesDate/timePositionNaut miles runAvg speedWind from/ knotsBaromVisibWave heightAir tempDewpointWater temp
2013-Jun-12 14:30N 36°38' W 008°59'1415.0
2013-Jun-12 13:33N 36°34' W 008°42'1514.7
2013-Jun-12 12:33N 36°30' W 008°25'2315.1
2013-Jun-12 11:04N 36°23' W 007°58'915.5
2013-Jun-12 10:29N 36°20' W 007°47'1915.7
2013-Jun-12 09:17N 36°15' W 007°25'1215.7
2013-Jun-12 08:33N 36°12' W 007°11'  
2013-Jun-09 20:09N 37°31' E 011°04'20014.4
2013-Jun-09 06:16N 36°17' E 014°56'1115.9
2013-Jun-09 05:33N 36°14' E 015°10'1414.6
2013-Jun-09 04:34N 36°10' E 015°27'1514.9
2013-Jun-09 03:33N 36°05' E 015°44'1814.9
2013-Jun-09 02:22N 35°59' E 016°05'1315.5
2013-Jun-09 01:33N 35°54' E 016°19'1515.1
2013-Jun-09 00:34N 35°51' E 016°37'1514.5
2013-Jun-08 23:33N 35°46' E 016°54'50114.7
2013-Jun-07 13:33N 33°14' E 026°33'6214.8
2013-Jun-07 09:24N 32°55' E 027°43'4915.7
2013-Jun-07 06:16N 32°40' E 028°39'2916.8
2013-Jun-07 04:34N 32°31' E 029°11'1616.0
2013-Jun-07 03:33N 32°26' E 029°29'3515.8
2013-Jun-07 01:18N 32°15' E 030°09'1515.5
2013-Jun-07 00:22N 32°10' E 030°26'1415.5
2013-Jun-06 23:26N 32°05' E 030°41'5915.3
2013-Jun-06 19:33N 31°48' E 031°48'1515.0
2013-Jun-06 18:33N 31°41' E 032°04'1515.4
2013-Jun-06 17:33N 31°30' E 032°17'1211.8
2013-Jun-06 16:33N 31°20' E 032°22'10 9.9
2013-Jun-06 15:33N 31°10' E 032°20'9 8.8
2013-Jun-06 14:33N 31°01' E 032°19'9 9.3
2013-Jun-06 13:33N 30°52' E 032°19'67 5.1
2013-Jun-06 00:29N 29°46' E 032°35'0 0.0
2013-Jun-05 23:26N 29°46' E 032°35'0 0.0
2013-Jun-05 22:32N 29°46' E 032°35'  

Dump ship's entire track history

sailing weather and tide predictions

Ship Status Report: callsign BA5